createdAt,value
2023-05-06T00:00:34.604Z,12.47
2023-05-06T00:02:40.032Z,12.46
2023-05-06T00:04:45.123Z,12.47
2023-05-06T00:06:50.460Z,12.45
2023-05-06T00:08:55.516Z,12.52
2023-05-06T00:11:00.705Z,12.53
2023-05-06T00:13:05.885Z,12.57
2023-05-06T00:15:12.406Z,12.67
2023-05-06T00:17:20.661Z,12.74
2023-05-06T00:19:25.704Z,12.65
2023-05-06T00:21:31.397Z,12.63
2023-05-06T00:23:36.456Z,12.59
2023-05-06T00:25:41.475Z,12.64
2023-05-06T00:27:46.504Z,12.65
2023-05-06T00:29:51.539Z,12.66
2023-05-06T00:31:56.869Z,12.65
2023-05-06T00:34:04.485Z,12.60
2023-05-06T00:36:10.445Z,12.63
2023-05-06T00:38:17.996Z,12.70
2023-05-06T00:40:23.041Z,12.66
2023-05-06T00:42:28.814Z,12.65
2023-05-06T00:44:34.629Z,12.63
2023-05-06T00:46:39.832Z,12.67
2023-05-06T00:48:46.171Z,12.72
2023-05-06T00:50:54.120Z,12.71
2023-05-06T00:53:01.271Z,12.70
2023-05-06T00:55:06.603Z,12.68
2023-05-06T00:57:11.789Z,12.71
2023-05-06T00:59:17.885Z,12.72
2023-05-06T01:01:23.289Z,12.70
2023-05-06T01:03:28.859Z,12.70
2023-05-06T01:05:48.168Z,12.69
2023-05-06T01:08:06.160Z,12.67
2023-05-06T01:10:20.602Z,12.68
2023-05-06T01:12:35.527Z,12.65
2023-05-06T01:14:51.893Z,12.60
2023-05-06T01:17:01.698Z,12.56
2023-05-06T01:19:12.370Z,12.54
2023-05-06T01:21:18.628Z,12.47
2023-05-06T01:23:26.289Z,12.43
2023-05-06T01:25:32.413Z,12.43
2023-05-06T01:27:37.425Z,12.41
2023-05-06T01:29:45.696Z,12.41
2023-05-06T01:31:55.276Z,12.44
2023-05-06T01:34:12.998Z,12.39
2023-05-06T01:36:25.894Z,12.24
2023-05-06T01:38:43.573Z,12.16
2023-05-06T01:40:54.442Z,12.07
2023-05-06T01:43:00.311Z,11.97
2023-05-06T01:45:08.091Z,11.89
2023-05-06T01:47:15.956Z,11.82
2023-05-06T01:49:23.199Z,11.79
2023-05-06T01:51:28.339Z,11.72
2023-05-06T01:53:36.094Z,11.70
2023-05-06T01:55:41.414Z,11.74
2023-05-06T01:57:46.802Z,11.78
2023-05-06T01:59:51.839Z,11.73
2023-05-06T02:01:56.902Z,11.54
2023-05-06T02:04:02.480Z,11.40
2023-05-06T02:06:08.047Z,11.29
2023-05-06T02:08:16.573Z,11.18
2023-05-06T02:10:26.153Z,11.13
2023-05-06T02:12:39.087Z,11.22
2023-05-06T02:14:44.148Z,11.29
2023-05-06T02:16:49.817Z,11.31
2023-05-06T02:18:55.500Z,11.30
2023-05-06T02:21:01.197Z,11.27
2023-05-06T02:23:06.262Z,11.35
2023-05-06T02:25:13.037Z,11.39
2023-05-06T02:27:20.718Z,11.41
2023-05-06T02:29:26.290Z,11.52
2023-05-06T02:31:31.881Z,11.50
2023-05-06T02:33:36.929Z,11.41
2023-05-06T02:35:42.243Z,11.34
2023-05-06T02:37:47.256Z,11.31
2023-05-06T02:39:52.287Z,11.28
2023-05-06T02:41:57.380Z,11.29
2023-05-06T02:44:04.989Z,11.34
2023-05-06T02:46:10.571Z,11.34
2023-05-06T02:48:16.528Z,11.49
2023-05-06T02:50:21.868Z,11.56
2023-05-06T02:52:27.526Z,11.61
2023-05-06T02:54:32.553Z,11.67
2023-05-06T02:56:38.135Z,11.73
2023-05-06T02:58:45.947Z,11.80
2023-05-06T03:00:53.895Z,11.82
2023-05-06T03:02:59.059Z,11.84
2023-05-06T03:05:04.571Z,11.88
2023-05-06T03:07:10.925Z,11.86
2023-05-06T03:09:15.991Z,11.86
2023-05-06T03:11:21.297Z,11.84
2023-05-06T03:13:26.787Z,11.81
2023-05-06T03:15:32.248Z,11.81
2023-05-06T03:17:40.529Z,11.84
2023-05-06T03:19:45.984Z,11.89
2023-05-06T03:21:52.180Z,11.89
2023-05-06T03:23:59.003Z,11.87
2023-05-06T03:26:06.860Z,11.91
2023-05-06T03:28:12.484Z,11.91
2023-05-06T03:30:19.400Z,11.95
2023-05-06T03:32:26.324Z,11.94
2023-05-06T03:34:34.117Z,11.89
2023-05-06T03:36:39.468Z,11.91
2023-05-06T03:38:45.181Z,11.91
2023-05-06T03:40:51.087Z,11.93
2023-05-06T03:42:56.128Z,11.94
2023-05-06T03:45:02.094Z,11.92
2023-05-06T03:47:10.129Z,11.96
2023-05-06T03:49:16.017Z,11.94
2023-05-06T03:51:27.536Z,11.92
2023-05-06T03:53:33.815Z,11.91
2023-05-06T03:55:39.640Z,11.87
2023-05-06T03:57:44.978Z,11.84
2023-05-06T03:59:50.328Z,11.87
2023-05-06T04:01:56.426Z,11.81
2023-05-06T04:04:02.006Z,11.80
2023-05-06T04:06:09.182Z,11.80
2023-05-06T04:08:17.555Z,11.84
2023-05-06T04:10:24.238Z,11.83
2023-05-06T04:12:32.062Z,11.87
2023-05-06T04:14:37.128Z,11.94
2023-05-06T04:16:43.531Z,11.98
2023-05-06T04:18:49.767Z,12.01
2023-05-06T04:20:55.313Z,12.01
2023-05-06T04:23:00.660Z,11.97
2023-05-06T04:25:10.395Z,11.99
2023-05-06T04:27:17.207Z,12.04
2023-05-06T04:29:23.616Z,12.09
2023-05-06T04:31:37.116Z,12.06
2023-05-06T04:33:45.671Z,12.07
2023-05-06T04:35:59.330Z,12.09
2023-05-06T04:38:06.319Z,12.14
2023-05-06T04:40:16.486Z,12.11
2023-05-06T04:42:23.498Z,12.11
2023-05-06T04:44:39.002Z,12.17
2023-05-06T04:46:47.369Z,12.23
2023-05-06T04:48:53.851Z,12.32
2023-05-06T04:50:59.771Z,12.36
2023-05-06T04:53:05.344Z,12.36
2023-05-06T04:55:13.938Z,12.38
2023-05-06T04:57:24.755Z,12.48
2023-05-06T04:59:32.610Z,12.48
2023-05-06T05:01:39.699Z,12.49
2023-05-06T05:03:44.810Z,12.55
2023-05-06T05:05:50.855Z,12.50
2023-05-06T05:07:58.053Z,12.41
2023-05-06T05:10:05.888Z,12.44
2023-05-06T05:12:14.451Z,12.47
2023-05-06T05:14:24.261Z,12.57
2023-05-06T05:16:30.368Z,12.58
2023-05-06T05:18:35.552Z,12.57
2023-05-06T05:20:47.497Z,12.66
2023-05-06T05:22:53.034Z,12.72
2023-05-06T05:24:58.498Z,12.84
2023-05-06T05:27:03.789Z,12.88
2023-05-06T05:29:11.638Z,12.94
2023-05-06T05:31:17.014Z,12.92
2023-05-06T05:33:22.219Z,12.90
2023-05-06T05:35:27.424Z,13.00
2023-05-06T05:37:32.987Z,12.79
2023-05-06T05:39:38.588Z,12.77
2023-05-06T05:41:44.463Z,12.88
2023-05-06T05:43:50.214Z,12.92
2023-05-06T05:45:57.902Z,12.99
2023-05-06T05:48:03.073Z,13.02
2023-05-06T05:50:10.378Z,13.18
2023-05-06T05:52:16.235Z,13.21
2023-05-06T05:54:21.350Z,13.34
2023-05-06T05:56:26.434Z,13.39
2023-05-06T05:58:32.160Z,13.32
2023-05-06T06:00:38.473Z,13.37
2023-05-06T06:02:52.192Z,13.51
2023-05-06T06:04:59.558Z,13.41
2023-05-06T06:07:04.771Z,13.54
2023-05-06T06:09:13.953Z,13.63
2023-05-06T06:11:19.703Z,13.38
2023-05-06T06:13:26.561Z,13.25
2023-05-06T06:15:33.794Z,13.54
2023-05-06T06:17:39.515Z,13.67
2023-05-06T06:19:48.661Z,13.79
2023-05-06T06:21:54.175Z,13.95
2023-05-06T06:23:59.225Z,13.93
2023-05-06T06:26:05.843Z,13.90
2023-05-06T06:28:11.833Z,14.10
2023-05-06T06:30:18.615Z,14.26
2023-05-06T06:32:24.381Z,14.36
2023-05-06T06:34:29.438Z,14.66
2023-05-06T06:36:40.561Z,14.93
2023-05-06T06:38:45.649Z,15.30
2023-05-06T06:40:50.927Z,15.25
2023-05-06T06:42:56.517Z,15.45
2023-05-06T06:45:40.254Z,15.11
2023-05-06T06:47:45.359Z,14.85
2023-05-06T06:49:50.651Z,14.96
2023-05-06T06:51:59.302Z,14.68
2023-05-06T06:54:04.332Z,14.63
2023-05-06T06:56:14.654Z,14.65
2023-05-06T06:58:19.679Z,14.91
2023-05-06T07:00:24.970Z,15.19
2023-05-06T07:02:30.038Z,15.15
2023-05-06T07:04:35.622Z,15.23
2023-05-06T07:06:40.712Z,15.36
2023-05-06T07:08:48.915Z,15.56
2023-05-06T07:10:54.052Z,15.84
2023-05-06T07:12:59.510Z,15.96
2023-05-06T07:15:06.976Z,16.04
2023-05-06T07:17:12.088Z,15.92
2023-05-06T07:19:17.754Z,16.02
2023-05-06T07:21:23.126Z,16.40
2023-05-06T07:23:29.456Z,16.65
2023-05-06T07:25:39.055Z,16.65
2023-05-06T07:27:44.214Z,16.93
2023-05-06T07:29:49.558Z,16.63
2023-05-06T07:31:54.578Z,16.35
2023-05-06T07:33:59.754Z,16.05
2023-05-06T07:36:04.798Z,15.85
2023-05-06T07:38:09.931Z,15.67
2023-05-06T07:40:16.241Z,15.77
2023-05-06T07:42:23.841Z,15.54
2023-05-06T07:44:29.357Z,15.77
2023-05-06T07:46:34.656Z,15.95
2023-05-06T07:48:39.821Z,16.02
2023-05-06T07:50:45.173Z,16.49
2023-05-06T07:52:50.240Z,16.63
2023-05-06T07:54:56.848Z,16.29
2023-05-06T07:57:02.564Z,16.25
2023-05-06T07:59:10.194Z,16.35
2023-05-06T08:01:15.722Z,16.51
2023-05-06T08:03:20.955Z,16.63
2023-05-06T08:05:26.510Z,16.68
2023-05-06T08:07:31.612Z,16.65
2023-05-06T08:09:36.668Z,16.68
2023-05-06T08:11:41.695Z,16.96
2023-05-06T08:13:47.309Z,17.27
2023-05-06T08:15:55.417Z,17.46
2023-05-06T08:18:13.867Z,17.85
2023-05-06T08:20:26.102Z,17.96
2023-05-06T08:22:31.172Z,18.14
2023-05-06T08:24:36.240Z,18.26
2023-05-06T08:26:41.772Z,18.40
2023-05-06T08:28:46.869Z,18.43
2023-05-06T08:30:54.892Z,18.32
2023-05-06T08:32:59.928Z,18.00
2023-05-06T08:35:05.431Z,18.29
2023-05-06T08:37:10.608Z,18.41
2023-05-06T08:39:16.512Z,18.67
2023-05-06T08:41:24.333Z,18.89
2023-05-06T08:43:32.044Z,19.11
2023-05-06T08:45:37.123Z,19.22
2023-05-06T08:47:45.320Z,19.18
2023-05-06T08:49:50.527Z,19.07
2023-05-06T08:51:57.217Z,19.11
2023-05-06T08:54:04.818Z,18.77
2023-05-06T08:56:11.941Z,18.66
2023-05-06T08:58:19.052Z,18.96
2023-05-06T09:00:24.621Z,18.92
2023-05-06T09:02:30.271Z,19.18
2023-05-06T09:04:39.860Z,19.24
2023-05-06T09:06:45.136Z,19.17
2023-05-06T09:08:50.230Z,19.27
2023-05-06T09:10:55.251Z,19.36
2023-05-06T09:13:00.718Z,19.45
2023-05-06T09:15:06.361Z,19.40
2023-05-06T09:17:24.512Z,19.64
2023-05-06T09:19:30.851Z,19.59
2023-05-06T09:21:39.939Z,19.65
2023-05-06T09:23:45.116Z,20.03
2023-05-06T09:25:51.334Z,20.16
2023-05-06T09:28:07.274Z,20.21
2023-05-06T09:30:15.069Z,20.46
2023-05-06T09:32:20.735Z,20.53
2023-05-06T09:34:25.940Z,20.57
2023-05-06T09:36:31.969Z,20.84
2023-05-06T09:38:39.850Z,20.81
2023-05-06T09:40:44.853Z,20.73
2023-05-06T09:42:51.969Z,20.84
2023-05-06T09:45:01.361Z,21.06
2023-05-06T09:47:07.542Z,21.00
2023-05-06T09:49:15.251Z,21.11
2023-05-06T09:51:20.788Z,20.87
2023-05-06T09:53:28.453Z,21.23
2023-05-06T09:55:37.436Z,20.95
2023-05-06T09:57:43.721Z,20.84
2023-05-06T09:59:50.262Z,20.91
2023-05-06T10:01:56.762Z,21.20
2023-05-06T10:04:05.069Z,21.23
2023-05-06T10:06:12.207Z,21.01
2023-05-06T10:08:18.753Z,21.09
2023-05-06T10:10:25.584Z,21.31
2023-05-06T10:12:33.855Z,21.40
2023-05-06T10:14:39.583Z,21.60
2023-05-06T10:16:45.358Z,21.65
2023-05-06T10:18:52.873Z,21.57
2023-05-06T10:20:58.420Z,21.67
2023-05-06T10:23:12.747Z,21.56
2023-05-06T10:25:32.242Z,21.75
2023-05-06T10:27:43.827Z,21.81
2023-05-06T10:29:50.783Z,21.69
2023-05-06T10:31:58.350Z,21.39
2023-05-06T10:34:07.810Z,21.50
2023-05-06T10:36:20.645Z,21.52
2023-05-06T10:38:32.899Z,21.92
2023-05-06T10:40:38.126Z,21.83
2023-05-06T10:42:45.780Z,21.89
2023-05-06T10:45:01.872Z,22.44
2023-05-06T10:47:07.068Z,22.39
2023-05-06T10:49:21.535Z,22.65
2023-05-06T10:51:31.731Z,22.76
2023-05-06T10:54:05.732Z,22.91
2023-05-06T10:56:11.996Z,22.67
2023-05-06T10:58:21.702Z,22.86
2023-05-06T11:00:27.390Z,23.17
2023-05-06T11:02:33.838Z,23.16
2023-05-06T11:04:39.160Z,23.04
2023-05-06T11:06:46.596Z,22.80
2023-05-06T11:09:01.308Z,23.04
2023-05-06T11:11:52.447Z,23.56
2023-05-06T11:14:15.836Z,23.46
2023-05-06T11:16:51.240Z,23.24
2023-05-06T11:18:58.391Z,23.71
2023-05-06T11:21:42.573Z,23.87
2023-05-06T11:24:16.644Z,23.73
2023-05-06T11:26:21.924Z,24.12
2023-05-06T11:28:28.345Z,24.42
2023-05-06T11:30:36.272Z,24.83
2023-05-06T11:32:42.852Z,24.46
2023-05-06T11:34:48.272Z,24.81
2023-05-06T11:37:02.844Z,25.17
2023-05-06T11:39:11.102Z,24.96
2023-05-06T11:41:17.089Z,24.73
2023-05-06T11:43:22.379Z,24.73
2023-05-06T11:45:27.409Z,24.82
2023-05-06T11:47:35.608Z,24.98
2023-05-06T11:49:43.033Z,24.82
2023-05-06T11:51:50.830Z,25.01
2023-05-06T11:54:08.457Z,25.10
2023-05-06T11:56:13.473Z,25.04
2023-05-06T11:58:22.332Z,24.71
2023-05-06T12:00:27.483Z,23.75
2023-05-06T12:02:35.809Z,23.61
2023-05-06T12:04:42.357Z,23.95
2023-05-06T12:06:47.895Z,24.16
2023-05-06T12:08:53.370Z,25.08
2023-05-06T12:11:01.172Z,23.96
2023-05-06T12:13:08.652Z,24.90
2023-05-06T12:15:15.330Z,25.21
2023-05-06T12:17:21.498Z,25.37
2023-05-06T12:19:29.500Z,26.14
2023-05-06T12:21:35.449Z,26.28
2023-05-06T12:23:52.845Z,26.51
2023-05-06T12:26:06.766Z,25.96
2023-05-06T12:28:18.477Z,25.35
2023-05-06T12:30:34.327Z,25.22
2023-05-06T12:32:39.629Z,25.08
2023-05-06T12:34:47.298Z,24.81
2023-05-06T12:36:52.307Z,25.37
2023-05-06T12:38:59.742Z,25.12
2023-05-06T12:41:04.828Z,24.77
2023-05-06T12:43:10.922Z,24.46
2023-05-06T12:45:18.885Z,25.17
2023-05-06T12:47:26.738Z,26.42
2023-05-06T12:49:54.679Z,26.74
2023-05-06T12:52:11.196Z,26.93
2023-05-06T12:54:34.579Z,27.75
2023-05-06T12:56:39.429Z,27.96
2023-05-06T12:58:44.442Z,28.27
2023-05-06T13:00:50.110Z,28.95
2023-05-06T13:02:55.393Z,28.44
2023-05-06T13:05:04.051Z,26.92
2023-05-06T13:07:09.202Z,26.19
2023-05-06T13:09:15.290Z,25.72
2023-05-06T13:11:22.525Z,25.02
2023-05-06T13:13:27.612Z,24.77
2023-05-06T13:15:34.531Z,24.35
2023-05-06T13:17:40.018Z,24.14
2023-05-06T13:19:45.353Z,24.05
2023-05-06T13:21:53.174Z,24.22
2023-05-06T13:23:58.206Z,24.29
2023-05-06T13:26:06.145Z,26.10
2023-05-06T13:28:11.480Z,27.04
2023-05-06T13:30:17.318Z,28.96
2023-05-06T13:32:22.427Z,30.12
2023-05-06T13:34:28.029Z,29.46
2023-05-06T13:36:33.386Z,28.82
2023-05-06T13:38:41.039Z,28.01
2023-05-06T13:40:50.378Z,26.99
2023-05-06T13:42:55.627Z,26.18
2023-05-06T13:45:00.731Z,25.33
2023-05-06T13:47:06.519Z,25.17
2023-05-06T13:49:11.584Z,25.26
2023-05-06T13:51:17.332Z,25.44
2023-05-06T13:53:23.333Z,25.34
2023-05-06T13:55:30.986Z,25.59
2023-05-06T13:57:36.441Z,27.14
2023-05-06T13:59:41.526Z,27.96
2023-05-06T14:01:47.444Z,28.40
2023-05-06T14:03:52.789Z,28.83
2023-05-06T14:05:58.357Z,29.31
2023-05-06T14:08:03.679Z,30.49
2023-05-06T14:10:11.197Z,30.74
2023-05-06T14:12:19.437Z,30.92
2023-05-06T14:14:24.462Z,31.64
2023-05-06T14:16:29.569Z,32.17
2023-05-06T14:18:36.129Z,32.14
2023-05-06T14:20:41.502Z,31.31
2023-05-06T14:22:47.215Z,30.18
2023-05-06T14:24:52.266Z,28.80
2023-05-06T14:26:57.726Z,28.43
2023-05-06T14:29:05.376Z,27.68
2023-05-06T14:31:10.929Z,27.84
2023-05-06T14:33:16.207Z,27.85
2023-05-06T14:35:21.920Z,27.07
2023-05-06T14:37:27.263Z,26.70
2023-05-06T14:39:32.785Z,26.62
2023-05-06T14:41:37.945Z,26.74
2023-05-06T14:43:42.975Z,26.93
2023-05-06T14:45:50.621Z,26.94
2023-05-06T14:47:56.001Z,26.60
2023-05-06T14:50:01.765Z,26.62
2023-05-06T14:52:06.936Z,26.69
2023-05-06T14:54:12.435Z,26.81
2023-05-06T14:56:17.835Z,27.06
2023-05-06T14:58:22.847Z,27.75
2023-05-06T15:00:28.425Z,29.84
2023-05-06T15:02:36.065Z,30.06
2023-05-06T15:04:41.361Z,32.07
2023-05-06T15:06:46.618Z,32.68
2023-05-06T15:08:52.615Z,32.96
2023-05-06T15:10:57.703Z,33.03
2023-05-06T15:13:02.776Z,33.61
2023-05-06T15:15:10.959Z,33.93
2023-05-06T15:17:16.521Z,34.49
2023-05-06T15:19:24.209Z,34.15
2023-05-06T15:21:29.269Z,32.02
2023-05-06T15:23:34.540Z,30.24
2023-05-06T15:25:39.881Z,29.19
2023-05-06T15:27:45.376Z,28.93
2023-05-06T15:29:50.446Z,28.09
2023-05-06T15:31:55.646Z,27.98
2023-05-06T15:34:01.313Z,28.74
2023-05-06T15:36:09.942Z,29.86
2023-05-06T15:38:15.607Z,30.33
2023-05-06T15:40:23.315Z,30.42
2023-05-06T15:42:28.457Z,29.80
2023-05-06T15:44:34.716Z,30.25
2023-05-06T15:46:39.805Z,29.36
2023-05-06T15:48:45.736Z,28.60
2023-05-06T15:50:51.218Z,27.59
2023-05-06T15:52:58.814Z,27.40
2023-05-06T15:55:03.856Z,26.63
2023-05-06T15:57:09.855Z,26.28
2023-05-06T15:59:15.756Z,25.97
2023-05-06T16:01:28.691Z,25.85
2023-05-06T16:03:46.281Z,25.48
2023-05-06T16:05:51.456Z,25.51
2023-05-06T16:07:59.057Z,25.43
2023-05-06T16:10:05.622Z,24.90
2023-05-06T16:12:10.883Z,24.56
2023-05-06T16:14:15.977Z,24.24
2023-05-06T16:16:21.047Z,24.05
2023-05-06T16:18:26.153Z,23.38
2023-05-06T16:20:32.757Z,23.76
2023-05-06T16:22:39.281Z,24.04
2023-05-06T16:24:47.959Z,23.71
2023-05-06T16:26:52.941Z,23.86
2023-05-06T16:28:59.632Z,23.52
2023-05-06T16:31:05.596Z,24.69
2023-05-06T16:33:10.953Z,25.13
2023-05-06T16:35:16.347Z,25.15
2023-05-06T16:37:21.402Z,25.60
2023-05-06T16:39:26.420Z,25.61
2023-05-06T16:41:34.298Z,24.63
2023-05-06T16:43:39.341Z,23.41
2023-05-06T16:45:45.723Z,23.29
2023-05-06T16:47:51.102Z,22.86
2023-05-06T16:49:56.248Z,22.94
2023-05-06T16:52:01.742Z,22.95
2023-05-06T16:54:07.088Z,22.54
2023-05-06T16:56:12.556Z,22.15
2023-05-06T16:58:20.155Z,21.98
2023-05-06T17:00:25.753Z,21.95
2023-05-06T17:02:31.724Z,21.94
2023-05-06T17:04:36.807Z,21.70
2023-05-06T17:06:42.105Z,21.65
2023-05-06T17:08:47.446Z,21.39
2023-05-06T17:10:52.478Z,21.27
2023-05-06T17:12:57.796Z,21.07
2023-05-06T17:15:06.581Z,20.88
2023-05-06T17:17:11.706Z,20.68
2023-05-06T17:19:16.750Z,20.51
2023-05-06T17:21:21.798Z,20.36
2023-05-06T17:23:27.321Z,20.18
2023-05-06T17:25:32.341Z,20.08
2023-05-06T17:27:37.387Z,19.93
2023-05-06T17:29:42.407Z,19.86
2023-05-06T17:31:50.279Z,19.82
2023-05-06T17:33:55.343Z,19.70
2023-05-06T17:36:00.536Z,19.59
2023-05-06T17:38:05.559Z,19.52
2023-05-06T17:40:13.171Z,19.46
2023-05-06T17:42:18.262Z,19.38
2023-05-06T17:44:23.280Z,19.32
2023-05-06T17:46:28.468Z,19.20
2023-05-06T17:48:36.220Z,19.09
2023-05-06T17:50:41.403Z,18.98
2023-05-06T17:52:46.528Z,18.89
2023-05-06T17:55:01.501Z,18.73
2023-05-06T17:57:16.640Z,18.60
2023-05-06T17:59:25.619Z,18.49
2023-05-06T18:01:31.775Z,18.46
2023-05-06T18:03:40.358Z,18.38
2023-05-06T18:05:45.485Z,18.29
2023-05-06T18:07:50.626Z,18.24
2023-05-06T18:09:56.156Z,18.18
2023-05-06T18:12:01.842Z,18.16
2023-05-06T18:14:07.351Z,18.06
2023-05-06T18:16:12.418Z,18.03
2023-05-06T18:18:17.769Z,17.91
2023-05-06T18:20:26.084Z,17.84
2023-05-06T18:22:31.175Z,17.76
2023-05-06T18:24:37.400Z,17.68
2023-05-06T18:26:45.334Z,17.66
2023-05-06T18:28:51.684Z,17.61
2023-05-06T18:30:57.051Z,17.62
2023-05-06T18:33:02.097Z,17.63
2023-05-06T18:35:08.719Z,17.59
2023-05-06T18:37:16.480Z,17.49
2023-05-06T18:39:21.708Z,17.40
2023-05-06T18:41:27.008Z,17.33
2023-05-06T18:43:32.500Z,17.29
2023-05-06T18:45:38.187Z,17.20
2023-05-06T18:47:43.289Z,17.16
2023-05-06T18:49:48.775Z,17.22
2023-05-06T18:51:54.515Z,17.27
2023-05-06T18:54:02.937Z,17.14
2023-05-06T18:56:10.295Z,17.07
2023-05-06T18:58:16.391Z,17.16
2023-05-06T19:00:22.588Z,17.16
2023-05-06T19:02:27.843Z,17.14
2023-05-06T19:04:33.686Z,17.01
2023-05-06T19:06:39.242Z,17.02
2023-05-06T19:08:44.264Z,17.05
2023-05-06T19:10:52.338Z,17.00
2023-05-06T19:12:57.429Z,16.85
2023-05-06T19:15:02.622Z,16.83
2023-05-06T19:17:08.064Z,16.74
2023-05-06T19:19:13.249Z,16.70
2023-05-06T19:21:18.858Z,16.68
2023-05-06T19:23:23.872Z,16.54
2023-05-06T19:25:29.027Z,16.52
2023-05-06T19:27:36.870Z,16.42
2023-05-06T19:29:41.971Z,16.32
2023-05-06T19:31:47.241Z,16.20
2023-05-06T19:33:52.356Z,16.08
2023-05-06T19:35:57.797Z,16.03
2023-05-06T19:38:03.029Z,15.98
2023-05-06T19:40:10.226Z,15.87
2023-05-06T19:42:15.341Z,15.81
2023-05-06T19:44:22.931Z,15.77
2023-05-06T19:46:28.217Z,15.74
2023-05-06T19:48:36.810Z,15.71
2023-05-06T19:50:42.000Z,15.74
2023-05-06T19:52:48.016Z,15.72
2023-05-06T19:54:53.794Z,15.67
2023-05-06T19:57:00.368Z,15.68
2023-05-06T19:59:05.490Z,15.62
2023-05-06T20:01:13.446Z,15.60
2023-05-06T20:03:18.617Z,15.57
2023-05-06T20:05:24.110Z,15.56
2023-05-06T20:07:29.200Z,15.49
2023-05-06T20:09:34.244Z,15.48
2023-05-06T20:11:39.995Z,15.49
2023-05-06T20:13:44.979Z,15.43
2023-05-06T20:15:50.234Z,15.44
2023-05-06T20:17:58.263Z,15.41
2023-05-06T20:20:04.848Z,15.34
2023-05-06T20:22:10.200Z,15.31
2023-05-06T20:24:16.360Z,15.25
2023-05-06T20:26:23.910Z,15.21
2023-05-06T20:28:31.448Z,15.13
2023-05-06T20:30:37.804Z,15.05
2023-05-06T20:32:43.849Z,15.04
2023-05-06T20:34:51.536Z,15.03
2023-05-06T20:36:57.030Z,15.03
2023-05-06T20:39:02.477Z,15.03
2023-05-06T20:41:07.536Z,15.09
2023-05-06T20:43:12.685Z,15.08
2023-05-06T20:45:17.888Z,15.14
2023-05-06T20:47:22.920Z,15.13
2023-05-06T20:49:28.067Z,15.11
2023-05-06T20:51:35.705Z,15.14
2023-05-06T20:53:41.165Z,15.19
2023-05-06T20:55:46.199Z,15.13
2023-05-06T20:57:51.331Z,15.16
2023-05-06T20:59:56.709Z,15.14
2023-05-06T21:02:01.741Z,15.05
2023-05-06T21:04:07.245Z,15.04
2023-05-06T21:06:12.728Z,15.02
2023-05-06T21:08:20.472Z,15.02
2023-05-06T21:10:25.653Z,15.03
2023-05-06T21:12:30.707Z,15.00
2023-05-06T21:14:35.759Z,15.08
2023-05-06T21:16:43.275Z,15.10
2023-05-06T21:18:48.471Z,15.03
2023-05-06T21:20:53.596Z,15.03
2023-05-06T21:22:58.609Z,14.96
2023-05-06T21:25:06.610Z,14.86
2023-05-06T21:27:11.652Z,14.82
2023-05-06T21:29:16.690Z,14.87
2023-05-06T21:31:23.272Z,14.89
2023-05-06T21:33:28.377Z,14.94
2023-05-06T21:35:33.671Z,15.02
2023-05-06T21:37:38.691Z,15.03
2023-05-06T21:39:43.738Z,15.03
2023-05-06T21:41:51.340Z,14.99
2023-05-06T21:43:56.735Z,15.04
2023-05-06T21:46:01.788Z,15.05
2023-05-06T21:48:07.459Z,14.99
2023-05-06T21:50:13.913Z,14.92
2023-05-06T21:52:18.961Z,14.86
2023-05-06T21:54:24.764Z,14.82
2023-05-06T21:56:30.084Z,14.76
2023-05-06T21:58:37.673Z,14.76
2023-05-06T22:00:42.696Z,14.69
2023-05-06T22:02:48.376Z,14.65
2023-05-06T22:04:53.481Z,14.60
2023-05-06T22:06:59.785Z,14.66
2023-05-06T22:09:09.576Z,14.73
2023-05-06T22:11:15.261Z,14.77
2023-05-06T22:13:21.572Z,14.73
2023-05-06T22:15:30.549Z,14.70
2023-05-06T22:17:36.029Z,14.65
2023-05-06T22:19:41.792Z,14.63
2023-05-06T22:21:47.540Z,14.64
2023-05-06T22:23:52.791Z,14.50
2023-05-06T22:25:59.165Z,14.53
2023-05-06T22:28:05.799Z,14.51
2023-05-06T22:30:13.615Z,14.51
2023-05-06T22:32:22.079Z,14.63
2023-05-06T22:34:27.185Z,14.66
2023-05-06T22:36:33.888Z,14.60
2023-05-06T22:38:39.075Z,14.64
2023-05-06T22:40:44.083Z,14.57
2023-05-06T22:42:49.746Z,14.47
2023-05-06T22:44:54.904Z,14.45
2023-05-06T22:47:00.500Z,14.45
2023-05-06T22:49:08.126Z,14.42
2023-05-06T22:51:13.523Z,14.38
2023-05-06T22:53:18.806Z,14.34
2023-05-06T22:55:24.309Z,14.36
2023-05-06T22:57:29.988Z,14.33
2023-05-06T22:59:35.066Z,14.29
2023-05-06T23:01:40.138Z,14.22
2023-05-06T23:03:45.941Z,14.15
2023-05-06T23:05:53.741Z,14.10
2023-05-06T23:07:59.291Z,13.94
2023-05-06T23:10:04.770Z,13.86
2023-05-06T23:12:09.946Z,13.75
2023-05-06T23:14:15.318Z,13.68
2023-05-06T23:16:21.157Z,13.61
2023-05-06T23:18:26.706Z,13.56
2023-05-06T23:20:32.584Z,13.57
2023-05-06T23:22:40.251Z,13.59
2023-05-06T23:24:46.060Z,13.65
2023-05-06T23:26:52.173Z,13.61
2023-05-06T23:28:57.510Z,13.59
2023-05-06T23:31:02.610Z,13.55
2023-05-06T23:33:07.887Z,13.66
2023-05-06T23:35:13.356Z,13.67
2023-05-06T23:37:18.705Z,13.65
2023-05-06T23:39:26.605Z,13.65
2023-05-06T23:41:31.604Z,13.69
2023-05-06T23:43:37.053Z,13.74
2023-05-06T23:45:42.070Z,13.78
2023-05-06T23:47:47.673Z,13.81
2023-05-06T23:49:53.147Z,13.83
2023-05-06T23:51:58.216Z,13.87
2023-05-06T23:54:03.528Z,13.90
2023-05-06T23:56:11.385Z,13.86
2023-05-06T23:58:16.511Z,13.88
